Time;durP1;ratioP1;P1;durP2;ratioP2;P2;SDS_P1;SDS_P2;PMS_P1;PMS_P2;Temp;Humidity;BMP_temperature;BMP_pressure;BME280_temperature;BME280_humidity;BME280_pressure;Samples;Min_cycle;Max_cycle;Signal;HPM_P1;HPM_P2
2023/01/21 03:01:06;;;;;;;16.37;14.80;;;-4.70;99.90;;;;;;5778230;23;20503;-76
2023/01/21 03:03:56;;;;;;;17.27;14.63;;;-4.70;99.90;;;;;;4917980;29;20439;-77
2023/01/21 03:06:38;;;;;;;17.27;15.23;;;-4.80;99.90;;;;;;4925529;29;20838;-77
2023/01/21 03:09:15;;;;;;;18.13;15.10;;;-4.90;99.90;;;;;;4924501;29;20452;-77
2023/01/21 03:11:45;;;;;;;17.10;15.10;;;-4.90;99.90;;;;;;4915451;29;20530;-77
2023/01/21 03:17:11;;;;;;;17.27;15.53;;;-5.00;99.90;;;;;;4906414;29;20433;-77
2023/01/21 03:19:45;;;;;;;20.13;16.57;;;-5.00;99.90;;;;;;4898044;29;20453;-77
2023/01/21 03:22:16;;;;;;;17.13;15.33;;;-5.10;99.90;;;;;;4921715;29;20473;-76
2023/01/21 03:24:46;;;;;;;21.47;16.97;;;-5.10;99.90;;;;;;4900240;29;20521;-77
2023/01/21 03:27:16;;;;;;;19.67;16.27;;;-5.20;99.90;;;;;;4921310;29;20523;-77
2023/01/21 03:29:46;;;;;;;18.33;16.40;;;-5.20;99.90;;;;;;4919608;29;20487;-77
2023/01/21 03:32:16;;;;;;;18.37;16.47;;;-5.20;99.90;;;;;;4908312;29;20493;-76
2023/01/21 03:34:48;;;;;;;22.53;16.40;;;-5.30;99.90;;;;;;4920072;29;20458;-77
2023/01/21 03:37:21;;;;;;;21.13;15.90;;;-5.30;99.90;;;;;;4916116;29;20460;-77
2023/01/21 03:39:55;;;;;;;20.30;17.03;;;-5.30;99.90;;;;;;4919279;29;20448;-77
2023/01/21 03:42:22;;;;;;;26.93;17.33;;;-5.30;99.90;;;;;;4920968;29;20527;-76
2023/01/21 03:44:49;;;;;;;21.23;17.50;;;-5.40;99.90;;;;;;4904737;29;20433;-77
2023/01/21 03:47:24;;;;;;;19.37;17.20;;;-5.30;99.90;;;;;;4906749;29;20505;-77
2023/01/21 03:49:57;;;;;;;23.67;17.63;;;-5.30;99.90;;;;;;4899546;29;20526;-76
2023/01/21 03:52:26;;;;;;;19.10;17.00;;;-5.40;99.90;;;;;;4922995;29;20475;-77
2023/01/21 03:54:53;;;;;;;20.50;18.17;;;-5.40;99.90;;;;;;4903527;29;20460;-76
2023/01/21 03:57:20;;;;;;;20.50;17.53;;;-5.30;99.90;;;;;;4909975;29;20431;-77
2023/01/21 03:59:47;;;;;;;18.53;16.63;;;-5.30;99.90;;;;;;4909267;29;20444;-77
2023/01/21 04:02:18;;;;;;;20.03;16.40;;;-5.40;99.90;;;;;;4904688;29;20476;-76
2023/01/21 04:04:46;;;;;;;24.87;17.10;;;-5.40;99.90;;;;;;4912611;29;20940;-76
2023/01/21 04:07:13;;;;;;;20.00;17.13;;;-5.50;99.90;;;;;;4901717;29;20540;-76
2023/01/21 04:09:40;;;;;;;20.20;17.10;;;-5.40;99.90;;;;;;4907657;29;20449;-76
2023/01/21 04:12:07;;;;;;;19.20;16.93;;;-5.40;99.90;;;;;;4908345;29;20520;-76
2023/01/21 04:14:34;;;;;;;18.67;16.50;;;-5.30;99.90;;;;;;4907018;29;20504;-77
2023/01/21 04:17:01;;;;;;;19.03;17.00;;;-5.30;99.90;;;;;;4897129;29;20476;-79
2023/01/21 04:19:27;;;;;;;19.07;16.77;;;-5.30;99.90;;;;;;4894662;29;20491;-81
2023/01/21 04:21:56;;;;;;;22.43;16.67;;;-5.30;99.90;;;;;;4902381;29;20480;-78
2023/01/21 04:24:22;;;;;;;19.23;16.67;;;-5.20;99.90;;;;;;4901222;29;20981;-78
2023/01/21 04:26:49;;;;;;;20.87;17.67;;;-5.30;99.90;;;;;;4894382;29;20727;-78
2023/01/21 04:29:17;;;;;;;18.53;16.57;;;-5.20;99.90;;;;;;4904534;29;20441;-78
2023/01/21 04:31:43;;;;;;;18.53;16.33;;;-5.20;99.90;;;;;;4916847;29;20514;-78
2023/01/21 04:34:10;;;;;;;18.03;16.23;;;-5.20;99.90;;;;;;4905492;29;20441;-78
2023/01/21 04:36:37;;;;;;;18.70;16.63;;;-5.30;99.90;;;;;;4905011;29;20455;-78
2023/01/21 04:39:05;;;;;;;19.37;16.73;;;-5.30;99.90;;;;;;4917930;29;20452;-78
2023/01/21 04:41:32;;;;;;;18.67;16.67;;;-5.40;99.90;;;;;;4919336;29;20486;-78
2023/01/21 04:43:59;;;;;;;18.23;16.33;;;-5.20;99.90;;;;;;4917425;29;20536;-77
2023/01/21 04:46:26;;;;;;;19.87;16.23;;;-5.30;99.90;;;;;;4918783;29;20550;-78
2023/01/21 04:48:53;;;;;;;19.27;16.53;;;-5.30;99.90;;;;;;4903544;29;21029;-78
2023/01/21 04:51:19;;;;;;;23.10;17.33;;;-5.20;99.90;;;;;;4905393;29;20489;-77
2023/01/21 04:56:15;;;;;;;18.83;16.93;;;-5.30;99.90;;;;;;4917000;29;20447;-79
2023/01/21 04:58:41;;;;;;;19.27;17.37;;;-5.30;99.90;;;;;;4918104;29;20505;-78
2023/01/21 05:01:08;;;;;;;20.00;18.00;;;-5.30;99.90;;;;;;4902552;29;20949;-77
2023/01/21 05:03:35;;;;;;;19.97;16.83;;;-5.20;99.90;;;;;;4917119;29;20490;-77
2023/01/21 05:06:02;;;;;;;19.40;17.57;;;-5.20;99.90;;;;;;4917347;29;20465;-77
2023/01/21 05:08:29;;;;;;;19.53;16.53;;;-5.30;99.90;;;;;;4889193;29;20829;-78
2023/01/21 05:10:56;;;;;;;18.03;16.00;;;-5.30;99.90;;;;;;4902093;29;20485;-78
2023/01/21 05:13:24;;;;;;;19.80;16.53;;;-5.20;99.90;;;;;;4903780;29;20449;-78
2023/01/21 05:15:51;;;;;;;18.67;16.63;;;-5.30;99.90;;;;;;4904463;29;20513;-78
2023/01/21 05:18:18;;;;;;;20.30;17.77;;;-5.30;99.90;;;;;;4905599;29;20516;-78
2023/01/21 05:20:45;;;;;;;17.70;15.90;;;-5.30;99.90;;;;;;4907802;29;20473;-77
2023/01/21 05:23:12;;;;;;;20.00;16.63;;;-5.40;99.90;;;;;;4901750;29;20445;-78
2023/01/21 05:25:38;;;;;;;18.30;16.40;;;-5.40;99.90;;;;;;4908283;29;20477;-77
2023/01/21 05:28:05;;;;;;;18.27;15.70;;;-5.40;99.90;;;;;;4913185;29;20512;-77
2023/01/21 05:30:33;;;;;;;20.57;18.47;;;-5.50;99.90;;;;;;4921154;29;20462;-78
2023/01/21 05:33:00;;;;;;;20.27;18.27;;;-5.50;99.90;;;;;;4908856;29;20459;-78
2023/01/21 05:35:27;;;;;;;21.33;19.13;;;-5.50;99.90;;;;;;4920834;29;21036;-81
2023/01/21 05:37:54;;;;;;;18.77;16.87;;;-5.50;99.90;;;;;;4921567;29;20454;-78
2023/01/21 05:40:21;;;;;;;19.83;17.83;;;-5.40;99.90;;;;;;4910961;29;20453;-78
2023/01/21 05:42:48;;;;;;;21.93;18.57;;;-5.50;99.90;;;;;;4910099;29;20477;-78
2023/01/21 05:45:14;;;;;;;19.13;17.13;;;-5.40;99.90;;;;;;4910690;29;20451;-77
2023/01/21 05:47:43;;;;;;;19.70;17.63;;;-5.50;99.90;;;;;;4908767;29;20507;-77
2023/01/21 05:50:11;;;;;;;20.63;18.43;;;-5.50;99.90;;;;;;4926797;29;20531;-78
2023/01/21 05:52:39;;;;;;;19.53;17.57;;;-5.50;99.90;;;;;;4909167;29;20881;-77
2023/01/21 05:55:06;;;;;;;22.93;19.10;;;-5.50;99.90;;;;;;4929701;29;20458;-78
2023/01/21 05:57:34;;;;;;;22.43;18.57;;;-5.50;99.90;;;;;;4924163;29;20448;-77
2023/01/21 06:00:00;;;;;;;19.83;17.73;;;-5.50;99.90;;;;;;4928270;29;20512;-79
2023/01/21 06:02:27;;;;;;;21.17;18.27;;;-5.60;99.90;;;;;;4911163;29;20478;-80
2023/01/21 06:04:55;;;;;;;19.70;17.77;;;-5.60;99.90;;;;;;4906979;29;20518;-78
2023/01/21 06:07:22;;;;;;;23.50;18.50;;;-5.60;99.90;;;;;;4909623;29;20531;-79
2023/01/21 06:09:49;;;;;;;21.67;18.27;;;-5.70;99.90;;;;;;4923605;29;20509;-79
2023/01/21 06:12:16;;;;;;;20.37;18.20;;;-5.70;99.90;;;;;;4926227;29;21027;-78
2023/01/21 06:14:42;;;;;;;22.33;18.80;;;-5.70;99.90;;;;;;4910347;29;20454;-81
2023/01/21 06:17:09;;;;;;;19.13;17.23;;;-5.70;99.90;;;;;;4898469;29;21133;-85
2023/01/21 06:19:36;;;;;;;18.97;16.97;;;-5.70;99.90;;;;;;4923370;29;20463;-77
2023/01/21 06:22:04;;;;;;;20.97;18.77;;;-5.70;99.90;;;;;;4899360;29;21003;-78
2023/01/21 06:24:31;;;;;;;22.20;17.83;;;-5.60;99.90;;;;;;4910403;29;20916;-78
2023/01/21 06:26:58;;;;;;;22.60;19.27;;;-5.60;99.90;;;;;;4912064;29;20885;-77
2023/01/21 06:29:24;;;;;;;20.17;18.07;;;-5.60;99.90;;;;;;4904929;29;20510;-78
2023/01/21 06:31:51;;;;;;;20.13;18.23;;;-5.70;99.90;;;;;;4923643;29;21078;-78
2023/01/21 06:34:18;;;;;;;22.77;17.60;;;-5.80;99.90;;;;;;4927686;29;20516;-78
2023/01/21 06:36:45;;;;;;;19.93;18.03;;;-5.80;99.90;;;;;;4924126;29;20486;-78
2023/01/21 06:39:13;;;;;;;20.13;17.97;;;-5.80;99.90;;;;;;4926597;29;20507;-78
2023/01/21 06:41:40;;;;;;;20.67;18.13;;;-5.80;99.90;;;;;;4909377;29;20465;-78
2023/01/21 06:44:07;;;;;;;20.27;18.07;;;-5.80;99.90;;;;;;4898273;29;20507;-78
2023/01/21 06:46:34;;;;;;;20.63;17.90;;;-5.80;99.90;;;;;;4908308;29;20465;-77
2023/01/21 06:49:01;;;;;;;20.13;18.13;;;-5.80;99.90;;;;;;4902850;29;20462;-78
2023/01/21 06:51:27;;;;;;;19.70;17.70;;;-5.70;99.90;;;;;;4916516;29;21002;-78
2023/01/21 06:53:54;;;;;;;18.83;17.03;;;-5.60;99.90;;;;;;4910679;29;20496;-78
2023/01/21 06:56:23;;;;;;;19.23;17.30;;;-5.50;99.90;;;;;;4913234;29;20499;-78
2023/01/21 06:58:50;;;;;;;18.50;16.07;;;-5.50;99.90;;;;;;4925888;29;20481;-77
2023/01/21 07:01:17;;;;;;;22.80;17.97;;;-5.40;99.90;;;;;;4926582;29;21114;-77
2023/01/21 07:03:44;;;;;;;20.77;18.87;;;-5.30;99.90;;;;;;4909352;29;20448;-78
2023/01/21 07:06:10;;;;;;;20.20;18.20;;;-5.10;99.90;;;;;;4927348;29;20558;-78
2023/01/21 07:08:37;;;;;;;20.87;18.67;;;-4.90;99.90;;;;;;4924768;29;20485;-78
2023/01/21 07:11:04;;;;;;;19.73;17.83;;;-4.90;99.90;;;;;;4906118;29;20525;-77
2023/01/21 07:13:32;;;;;;;21.23;19.13;;;-4.80;99.90;;;;;;4909344;29;20440;-77
2023/01/21 07:16:00;;;;;;;22.83;19.50;;;-4.80;99.90;;;;;;4910189;29;20999;-77
2023/01/21 07:18:27;;;;;;;18.87;17.07;;;-4.70;99.90;;;;;;4901396;29;20453;-77
2023/01/21 07:20:54;;;;;;;18.70;16.80;;;-4.70;99.90;;;;;;4921077;29;20476;-79
2023/01/21 07:23:21;;;;;;;20.17;17.93;;;-4.70;99.90;;;;;;4924706;29;20449;-80
2023/01/21 07:25:47;;;;;;;20.40;17.63;;;-4.60;99.90;;;;;;4903837;29;20500;-77
2023/01/21 07:28:15;;;;;;;20.13;18.00;;;-4.50;99.90;;;;;;4925526;29;20611;-78
2023/01/21 07:30:43;;;;;;;21.20;18.70;;;-4.40;99.90;;;;;;4921778;29;20988;-78
2023/01/21 07:33:10;;;;;;;19.57;17.57;;;-4.40;99.90;;;;;;4909461;29;20523;-77
2023/01/21 07:35:37;;;;;;;20.50;18.43;;;-4.30;99.90;;;;;;4912270;29;20443;-77
2023/01/21 07:38:04;;;;;;;19.40;17.40;;;-4.30;99.90;;;;;;4909432;29;20444;-77
2023/01/21 07:40:31;;;;;;;19.20;17.40;;;-4.30;99.90;;;;;;4915415;29;20464;-78
2023/01/21 07:42:57;;;;;;;18.87;17.23;;;-4.20;99.90;;;;;;4915858;29;20439;-78
2023/01/21 07:45:25;;;;;;;19.00;17.20;;;-4.20;99.90;;;;;;4901878;29;20600;-77
2023/01/21 07:47:53;;;;;;;18.80;17.00;;;-4.10;99.90;;;;;;4916394;29;20547;-79
2023/01/21 07:50:20;;;;;;;18.40;16.60;;;-4.10;99.90;;;;;;4901380;29;20963;-81
2023/01/21 07:52:46;;;;;;;21.10;18.90;;;-4.00;99.90;;;;;;4897926;29;20516;-80
2023/01/21 07:55:13;;;;;;;18.80;17.07;;;-4.00;99.90;;;;;;4909492;29;20808;-79
2023/01/21 07:57:40;;;;;;;21.10;19.07;;;-3.90;99.90;;;;;;4910862;29;20522;-80
2023/01/21 08:00:08;;;;;;;20.50;18.60;;;-4.00;99.90;;;;;;4925489;29;20448;-79
2023/01/21 08:02:38;;;;;;;21.20;18.93;;;-3.90;99.90;;;;;;4914085;29;20903;-79
2023/01/21 08:05:09;;;;;;;20.87;18.77;;;-4.00;99.90;;;;;;4911108;29;20958;-81
2023/01/21 08:07:35;;;;;;;23.93;20.60;;;-3.80;99.90;;;;;;4896688;29;20469;-82
2023/01/21 08:10:03;;;;;;;21.17;18.97;;;-3.70;99.90;;;;;;4924474;29;20444;-83
2023/01/21 08:12:29;;;;;;;22.70;20.33;;;-3.70;99.90;;;;;;4926291;29;20504;-83
2023/01/21 08:14:56;;;;;;;23.13;19.80;;;-3.60;99.90;;;;;;4921911;29;20456;-78
2023/01/21 08:17:23;;;;;;;21.90;19.63;;;-3.60;99.90;;;;;;4908633;29;20909;-77
2023/01/21 08:19:50;;;;;;;22.23;19.83;;;-3.60;99.90;;;;;;4912094;29;20478;-77
2023/01/21 08:22:18;;;;;;;22.20;19.97;;;-3.50;99.90;;;;;;4929193;29;20501;-78
2023/01/21 08:24:45;;;;;;;23.23;20.83;;;-3.50;99.90;;;;;;4916662;29;20494;-78
2023/01/21 08:27:11;;;;;;;22.10;19.80;;;-3.60;99.90;;;;;;4929802;29;20488;-79
2023/01/21 08:29:38;;;;;;;21.60;19.60;;;-3.40;99.90;;;;;;4912603;29;20445;-80
2023/01/21 08:32:05;;;;;;;21.93;19.80;;;-3.50;99.90;;;;;;4912279;29;20465;-78
2023/01/21 08:34:32;;;;;;;21.30;19.20;;;-3.40;99.90;;;;;;4908381;29;20464;-79
2023/01/21 08:36:59;;;;;;;21.10;19.10;;;-3.30;99.90;;;;;;4930017;29;20460;-77
2023/01/21 08:39:27;;;;;;;21.53;19.27;;;-3.20;99.90;;;;;;4915843;29;20446;-79
2023/01/21 08:41:54;;;;;;;21.00;18.90;;;-3.20;99.90;;;;;;4914319;29;20940;-79
2023/01/21 08:44:21;;;;;;;20.33;18.43;;;-3.30;99.90;;;;;;4929007;29;20464;-78
2023/01/21 08:46:48;;;;;;;21.87;18.93;;;-3.30;99.90;;;;;;4906755;29;20484;-78
2023/01/21 08:49:15;;;;;;;21.10;18.90;;;-3.30;99.90;;;;;;4929050;29;20445;-79
2023/01/21 08:51:41;;;;;;;21.13;18.83;;;-3.20;99.90;;;;;;4914236;29;20464;-79
2023/01/21 08:54:09;;;;;;;19.93;17.97;;;-3.10;99.90;;;;;;4914449;29;20476;-79
2023/01/21 08:56:37;;;;;;;22.77;19.60;;;-3.10;99.90;;;;;;4931856;29;20456;-78
2023/01/21 08:59:04;;;;;;;22.57;19.07;;;-3.10;99.90;;;;;;4916169;29;20934;-78
2023/01/21 09:01:30;;;;;;;22.57;19.60;;;-3.10;99.90;;;;;;4917373;29;20476;-79
2023/01/21 09:03:59;;;;;;;22.93;20.53;;;-3.10;99.90;;;;;;4914495;29;20561;-78
2023/01/21 09:06:27;;;;;;;22.70;20.30;;;-3.10;99.90;;;;;;4931015;29;20981;-78
2023/01/21 09:08:54;;;;;;;23.33;20.17;;;-3.10;99.90;;;;;;4917152;29;20484;-80
2023/01/21 09:11:21;;;;;;;22.37;19.97;;;-3.00;99.90;;;;;;4929701;29;20485;-78
2023/01/21 09:13:49;;;;;;;28.63;23.40;;;-2.90;99.90;;;;;;4917124;29;20444;-77
2023/01/21 09:16:19;;;;;;;27.47;22.80;;;-2.80;99.90;;;;;;4930630;29;20518;-80
2023/01/21 09:18:46;;;;;;;25.50;22.33;;;-2.70;99.90;;;;;;4916624;29;20476;-79
2023/01/21 09:21:13;;;;;;;24.17;21.50;;;-2.70;99.90;;;;;;4915700;29;20462;-79
2023/01/21 09:23:40;;;;;;;26.37;22.07;;;-2.70;99.90;;;;;;4930804;29;20485;-78
2023/01/21 09:26:12;;;;;;;24.33;20.83;;;-2.60;99.90;;;;;;4910652;29;20440;-79
2023/01/21 09:28:41;;;;;;;26.30;21.93;;;-2.60;99.90;;;;;;4928455;29;20531;-81
2023/01/21 09:31:12;;;;;;;27.87;22.30;;;-2.50;99.90;;;;;;4903714;29;20579;-80
2023/01/21 09:33:41;;;;;;;25.97;22.40;;;-2.40;99.90;;;;;;4915224;29;20508;-78
2023/01/21 09:36:12;;;;;;;24.73;22.13;;;-2.40;99.90;;;;;;4911647;29;20490;-81
2023/01/21 09:38:42;;;;;;;25.90;21.93;;;-2.20;99.90;;;;;;4916658;29;20921;-81
2023/01/21 09:41:20;;;;;;;29.90;23.87;;;-2.10;99.90;;;;;;4903080;29;20480;-81
2023/01/21 09:43:53;;;;;;;27.13;22.37;;;-2.00;99.90;;;;;;4899941;29;20520;-84
2023/01/21 09:46:32;;;;;;;29.50;22.70;;;-2.00;99.90;;;;;;4897019;29;20458;-79
2023/01/21 09:49:01;;;;;;;26.73;22.57;;;-2.00;99.90;;;;;;4913362;29;20479;-78
2023/01/21 09:51:40;;;;;;;28.73;23.50;;;-1.90;99.90;;;;;;4908034;29;20901;-76
2023/01/21 09:54:17;;;;;;;25.87;22.67;;;-1.70;99.90;;;;;;4904673;29;20440;-78
2023/01/21 09:56:56;;;;;;;25.97;22.80;;;-1.70;99.90;;;;;;4909550;29;20936;-77
2023/01/21 09:59:34;;;;;;;25.17;22.10;;;-1.70;99.90;;;;;;4905942;29;20987;-77
2023/01/21 10:02:09;;;;;;;25.57;22.27;;;-1.70;99.90;;;;;;4913706;29;20471;-77
2023/01/21 10:04:45;;;;;;;24.70;21.93;;;-1.50;99.90;;;;;;4898501;29;20448;-77
2023/01/21 10:07:16;;;;;;;24.47;21.87;;;-1.40;99.90;;;;;;4900782;29;20457;-78
2023/01/21 10:09:56;;;;;;;24.60;21.90;;;-1.40;99.90;;;;;;4897505;29;20986;-79
2023/01/21 10:12:38;;;;;;;24.77;22.17;;;-1.50;99.90;;;;;;4905327;29;20543;-80
2023/01/21 10:15:20;;;;;;;24.67;22.03;;;-1.60;99.90;;;;;;4899146;29;20520;-80
2023/01/21 10:17:56;;;;;;;25.30;22.67;;;-1.40;99.90;;;;;;4897359;29;20453;-77
2023/01/21 10:20:26;;;;;;;28.60;23.30;;;-1.40;99.90;;;;;;4909484;29;20472;-76
2023/01/21 10:22:59;;;;;;;27.30;24.13;;;-1.40;99.90;;;;;;4912046;29;20489;-77
2023/01/21 10:25:30;;;;;;;25.63;22.77;;;-1.50;99.90;;;;;;4915457;29;20508;-76
2023/01/21 10:28:01;;;;;;;26.73;23.37;;;-1.50;99.90;;;;;;4913241;29;20540;-77
2023/01/21 10:30:34;;;;;;;27.93;22.27;;;-1.50;99.90;;;;;;4902133;29;20440;-77
2023/01/21 10:33:04;;;;;;;30.23;22.20;;;-1.40;99.90;;;;;;4902067;29;20492;-77
2023/01/21 10:35:43;;;;;;;25.57;22.87;;;-1.20;99.90;;;;;;4898224;29;20461;-78
2023/01/21 10:38:18;;;;;;;25.47;22.90;;;-1.00;99.90;;;;;;4904817;29;20495;-76
2023/01/21 10:40:54;;;;;;;25.30;22.47;;;-1.00;99.90;;;;;;4920197;29;20538;-77
2023/01/21 10:43:33;;;;;;;31.00;24.60;;;-1.00;99.90;;;;;;4910056;29;20499;-76
2023/01/21 10:46:10;;;;;;;28.53;24.87;;;-1.00;99.90;;;;;;4908083;29;20582;-77
2023/01/21 10:48:43;;;;;;;30.07;23.80;;;-1.10;99.90;;;;;;4896538;29;20567;-76
2023/01/21 10:51:18;;;;;;;26.07;23.27;;;-1.10;99.90;;;;;;4900699;29;20468;-77
2023/01/21 10:53:50;;;;;;;29.03;23.30;;;-1.20;99.90;;;;;;4908725;29;20951;-77
2023/01/21 10:56:28;;;;;;;26.53;21.67;;;-1.20;99.90;;;;;;4904562;29;20516;-77
2023/01/21 10:58:58;;;;;;;29.13;23.87;;;-1.20;99.90;;;;;;4906344;29;20429;-77
2023/01/21 11:01:33;;;;;;;27.47;23.53;;;-1.20;99.90;;;;;;4922750;29;20484;-75
2023/01/21 11:04:05;;;;;;;25.70;23.00;;;-1.20;99.90;;;;;;4908142;29;20445;-77
2023/01/21 11:06:34;;;;;;;27.73;23.83;;;-1.20;99.90;;;;;;4900069;29;20458;-77
2023/01/21 11:09:04;;;;;;;26.93;24.03;;;-1.10;99.90;;;;;;4903544;29;20521;-76
2023/01/21 11:11:32;;;;;;;30.63;24.87;;;-1.20;99.90;;;;;;4902062;29;20498;-77
2023/01/21 11:13:59;;;;;;;28.37;25.27;;;-1.10;99.90;;;;;;4903152;29;20464;-77
2023/01/21 11:16:43;;;;;;;25.97;23.27;;;-1.10;99.90;;;;;;4914610;29;21001;-77
2023/01/21 11:19:14;;;;;;;32.00;25.13;;;-1.00;99.90;;;;;;4910648;29;20429;-78
2023/01/21 11:21:56;;;;;;;26.83;23.63;;;-0.90;99.90;;;;;;4912338;29;20506;-79
2023/01/21 11:24:24;;;;;;;28.37;23.70;;;-1.00;99.90;;;;;;4914018;29;20984;-79
2023/01/21 11:26:53;;;;;;;28.70;23.27;;;-1.10;99.90;;;;;;4911075;29;20507;-78
2023/01/21 11:29:21;;;;;;;30.23;24.83;;;-1.20;99.90;;;;;;4927016;29;20863;-76
2023/01/21 11:31:52;;;;;;;29.80;22.43;;;-1.20;99.90;;;;;;4912476;29;20559;-77
2023/01/21 11:34:22;;;;;;;27.20;23.90;;;-1.10;99.90;;;;;;4910746;29;20861;-78
2023/01/21 11:36:58;;;;;;;26.07;23.43;;;-1.10;99.90;;;;;;4912040;29;20448;-78
2023/01/21 11:39:25;;;;;;;27.23;23.70;;;-1.10;99.90;;;;;;4911220;29;20443;-78
2023/01/21 11:41:54;;;;;;;28.57;23.23;;;-1.10;99.90;;;;;;4911525;29;20519;-79
2023/01/21 11:44:22;;;;;;;32.97;24.17;;;-1.00;99.90;;;;;;4911445;29;20733;-78
2023/01/21 11:46:49;;;;;;;28.40;24.83;;;-1.00;99.90;;;;;;4908832;29;20882;-78
2023/01/21 11:49:25;;;;;;;29.87;25.27;;;-1.00;99.90;;;;;;4904240;29;20487;-78
2023/01/21 11:52:05;;;;;;;28.07;23.83;;;-0.90;99.90;;;;;;4929197;29;20482;-78
2023/01/21 11:54:38;;;;;;;34.53;25.87;;;-0.90;99.90;;;;;;4901188;29;21263;-79
2023/01/21 11:57:05;;;;;;;29.60;24.67;;;-0.90;99.90;;;;;;4915004;29;20451;-78
2023/01/21 11:59:35;;;;;;;28.50;23.73;;;-0.90;99.90;;;;;;4909628;29;20436;-77
2023/01/21 12:02:09;;;;;;;30.30;24.53;;;-0.80;99.90;;;;;;4918072;29;20601;-78
2023/01/21 12:04:43;;;;;;;28.90;24.07;;;-0.90;99.90;;;;;;4913203;29;20469;-77
2023/01/21 12:07:19;;;;;;;30.40;25.20;;;-0.70;99.90;;;;;;4915070;29;20866;-78
2023/01/21 12:09:50;;;;;;;27.63;24.37;;;-0.60;99.90;;;;;;4912406;29;20508;-78
2023/01/21 12:12:40;;;;;;;31.37;25.67;;;-0.60;99.90;;;;;;4933265;29;20484;-78
2023/01/21 12:15:22;;;;;;;31.90;25.13;;;-0.60;99.90;;;;;;4902554;29;20461;-77
2023/01/21 12:17:56;;;;;;;31.50;25.07;;;-0.50;99.90;;;;;;4914059;29;20847;-78
2023/01/21 12:20:35;;;;;;;31.00;25.00;;;-0.30;99.90;;;;;;4929032;29;20458;-77
2023/01/21 12:23:27;;;;;;;33.27;25.70;;;-0.40;99.90;;;;;;4915005;29;20448;-77
2023/01/21 12:25:58;;;;;;;30.90;25.03;;;-0.30;99.90;;;;;;4927154;29;20464;-78
2023/01/21 12:28:59;;;;;;;31.07;24.70;;;-0.30;99.90;;;;;;4909467;29;20481;-77
2023/01/21 12:31:31;;;;;;;28.70;24.63;;;-0.20;99.90;;;;;;4890478;29;20504;-78
2023/01/21 12:34:03;;;;;;;30.40;25.60;;;-0.30;99.90;;;;;;4906895;29;20466;-77
2023/01/21 12:36:36;;;;;;;30.47;25.17;;;-0.30;99.90;;;;;;4908863;29;20460;-78
2023/01/21 12:39:15;;;;;;;29.30;25.97;;;-0.30;99.90;;;;;;4909768;29;20438;-77
2023/01/21 12:41:45;;;;;;;29.77;26.10;;;-0.30;99.90;;;;;;4907917;29;20493;-76
2023/01/21 12:44:25;;;;;;;32.77;24.73;;;-0.40;99.90;;;;;;4911918;29;20441;-76
2023/01/21 12:46:58;;;;;;;32.63;24.97;;;-0.30;99.90;;;;;;4918094;29;20466;-80
2023/01/21 12:49:29;;;;;;;32.10;25.27;;;-0.30;99.90;;;;;;4906437;29;20480;-80
2023/01/21 12:52:02;;;;;;;31.10;23.90;;;-0.20;99.90;;;;;;4931855;29;20540;-80
2023/01/21 12:54:40;;;;;;;30.60;24.37;;;-0.20;99.90;;;;;;4902118;29;20981;-80
2023/01/21 12:57:14;;;;;;;28.07;24.47;;;-0.20;99.90;;;;;;4913592;29;20483;-79
2023/01/21 12:59:47;;;;;;;28.70;23.67;;;-0.30;99.90;;;;;;4910489;29;20456;-80
2023/01/21 13:02:23;;;;;;;29.67;24.57;;;-0.10;99.90;;;;;;4929902;29;20478;-78
2023/01/21 13:04:56;;;;;;;26.43;23.63;;;-0.10;99.90;;;;;;4926853;29;20548;-82
2023/01/21 13:07:37;;;;;;;29.57;23.53;;;-0.10;99.90;;;;;;4927116;29;20886;-80
2023/01/21 13:10:14;;;;;;;26.70;22.03;;;-0.10;99.90;;;;;;4902180;29;20904;-83
2023/01/21 13:12:44;;;;;;;27.13;23.67;;;0.00;99.90;;;;;;4895556;29;20473;-83
2023/01/21 13:15:17;;;;;;;28.93;23.93;;;0.00;99.90;;;;;;4925392;29;20488;-83
2023/01/21 13:17:49;;;;;;;27.77;24.37;;;-0.10;99.90;;;;;;4919544;29;20460;-81
2023/01/21 13:20:18;;;;;;;26.20;23.00;;;0.10;99.90;;;;;;4905859;29;20495;-81
2023/01/21 13:22:54;;;;;;;25.33;22.63;;;0.10;99.90;;;;;;4906746;29;20502;-81
2023/01/21 13:25:31;;;;;;;25.50;21.97;;;0.20;99.90;;;;;;4911392;29;20509;-82
2023/01/21 13:28:02;;;;;;;24.53;21.67;;;0.30;99.90;;;;;;4912913;29;20452;-81
2023/01/21 13:30:36;;;;;;;24.70;21.97;;;0.30;99.90;;;;;;4899108;29;20455;-82
2023/01/21 13:33:14;;;;;;;23.07;20.67;;;0.20;99.90;;;;;;4915319;29;20445;-82
2023/01/21 13:35:50;;;;;;;23.77;21.23;;;0.20;99.90;;;;;;4908304;29;20471;-81
2023/01/21 13:38:27;;;;;;;25.07;22.47;;;0.20;99.90;;;;;;4930083;29;20458;-82
2023/01/21 13:41:00;;;;;;;24.60;21.77;;;0.20;99.90;;;;;;4916648;29;20495;-82
2023/01/21 13:43:42;;;;;;;25.33;21.63;;;0.10;99.90;;;;;;4903947;29;20509;-81
2023/01/21 13:46:22;;;;;;;25.83;21.90;;;0.00;99.90;;;;;;4901359;29;20454;-78
2023/01/21 13:49:09;;;;;;;24.40;21.57;;;0.00;99.90;;;;;;4910656;29;20477;-84
2023/01/21 13:51:49;;;;;;;26.30;23.30;;;0.00;99.90;;;;;;4907918;29;20469;-78
2023/01/21 13:54:34;;;;;;;24.40;21.80;;;0.00;99.90;;;;;;4902805;29;20549;-78
2023/01/21 13:57:16;;;;;;;25.17;21.93;;;0.00;99.90;;;;;;4907005;29;21043;-82
2023/01/21 13:59:47;;;;;;;27.33;22.53;;;0.00;99.90;;;;;;4906460;29;20450;-82
2023/01/21 14:02:18;;;;;;;25.53;22.77;;;0.00;99.90;;;;;;4913029;29;20517;-81
2023/01/21 14:04:55;;;;;;;27.17;22.73;;;-0.10;99.90;;;;;;4921965;29;20449;-82
2023/01/21 14:07:27;;;;;;;27.40;22.70;;;-0.10;99.90;;;;;;4929416;29;20517;-81
2023/01/21 14:10:02;;;;;;;23.80;21.40;;;-0.10;99.90;;;;;;4921937;29;20501;-81
2023/01/21 14:13:02;;;;;;;26.47;22.27;;;-0.10;99.90;;;;;;4907705;29;20465;-82
2023/01/21 14:15:43;;;;;;;26.40;22.17;;;-0.10;99.90;;;;;;4900402;29;20444;-80
2023/01/21 14:18:31;;;;;;;24.43;21.60;;;-0.10;99.90;;;;;;4908989;29;21002;-81
2023/01/21 14:21:20;;;;;;;25.07;22.37;;;-0.20;99.90;;;;;;4911511;29;20486;-81
2023/01/21 14:24:12;;;;;;;23.57;21.07;;;-0.20;99.90;;;;;;4914895;29;20534;-81
2023/01/21 14:27:09;;;;;;;23.50;19.80;;;-0.20;99.90;;;;;;4897829;29;20433;-79
2023/01/21 14:29:43;;;;;;;26.50;21.73;;;-0.10;99.90;;;;;;4900680;29;20565;-81
2023/01/21 14:32:16;;;;;;;24.30;21.33;;;-0.10;99.90;;;;;;4889628;29;20478;-80
2023/01/21 14:34:52;;;;;;;25.60;21.80;;;-0.10;99.90;;;;;;4898336;29;20558;-80
2023/01/21 14:37:28;;;;;;;26.10;21.47;;;-0.20;99.90;;;;;;4896477;29;20454;-81
2023/01/21 14:40:05;;;;;;;24.80;22.10;;;-0.20;99.90;;;;;;4895785;29;20445;-82
2023/01/21 14:42:46;;;;;;;25.50;21.57;;;-0.20;99.90;;;;;;4899828;29;21052;-80
2023/01/21 14:45:15;;;;;;;26.37;21.10;;;-0.30;99.90;;;;;;4907173;29;20496;-80
2023/01/21 14:47:47;;;;;;;24.60;22.00;;;-0.30;99.90;;;;;;4924654;29;20464;-81
2023/01/21 14:50:46;;;;;;;28.80;22.73;;;-0.20;99.90;;;;;;4908179;29;20475;-80
2023/01/21 14:53:18;;;;;;;25.40;21.73;;;-0.30;99.90;;;;;;4904996;29;20484;-82
2023/01/21 14:55:45;;;;;;;24.17;21.57;;;-0.20;99.90;;;;;;4911207;29;20449;-82
2023/01/21 14:58:23;;;;;;;25.50;22.77;;;-0.20;99.90;;;;;;4908132;29;20449;-79
2023/01/21 15:00:51;;;;;;;25.93;22.17;;;-0.20;99.90;;;;;;4900628;29;20522;-81
2023/01/21 15:03:25;;;;;;;23.47;21.00;;;-0.20;99.90;;;;;;4874390;29;20465;-79
2023/01/21 15:05:54;;;;;;;26.30;22.43;;;-0.20;99.90;;;;;;4888999;29;20522;-82
2023/01/21 15:08:23;;;;;;;25.67;22.37;;;-0.30;99.90;;;;;;4898106;29;20537;-78
2023/01/21 15:10:55;;;;;;;27.80;23.03;;;-0.20;99.90;;;;;;4912878;29;20897;-78
2023/01/21 15:13:36;;;;;;;24.43;20.63;;;-0.30;99.90;;;;;;4910860;29;20497;-80
2023/01/21 15:16:14;;;;;;;27.20;20.77;;;-0.30;99.90;;;;;;4895063;29;20491;-79
2023/01/21 15:18:44;;;;;;;25.17;21.83;;;-0.30;99.90;;;;;;4891833;29;20493;-81
2023/01/21 15:21:45;;;;;;;25.47;21.93;;;-0.30;99.90;;;;;;4884166;29;20867;-80
2023/01/21 15:24:24;;;;;;;24.50;21.57;;;-0.30;99.90;;;;;;4822579;29;20458;-81
2023/01/21 15:27:14;;;;;;;23.53;21.07;;;-0.30;99.90;;;;;;4818967;29;20463;-82
2023/01/21 15:29:43;;;;;;;24.87;21.57;;;-0.40;99.90;;;;;;4883849;29;20549;-83
2023/01/21 15:32:25;;;;;;;25.33;22.30;;;-0.40;99.90;;;;;;4893257;29;20462;-79
2023/01/21 15:34:56;;;;;;;24.73;21.77;;;-0.50;99.90;;;;;;4894813;29;20441;-83
2023/01/21 15:37:24;;;;;;;23.47;20.63;;;-0.40;99.90;;;;;;4900315;29;20464;-83
2023/01/21 15:39:56;;;;;;;26.10;21.87;;;-0.40;99.90;;;;;;4898395;29;20883;-83
2023/01/21 15:42:32;;;;;;;25.20;21.93;;;-0.40;99.90;;;;;;4896192;29;20479;-82
2023/01/21 15:45:12;;;;;;;25.40;22.17;;;-0.50;99.90;;;;;;4906388;29;20453;-81
2023/01/21 15:47:53;;;;;;;25.07;22.37;;;-0.50;99.90;;;;;;4898718;29;20480;-78
2023/01/21 15:50:30;;;;;;;28.17;23.53;;;-0.50;99.90;;;;;;4901058;29;20903;-78
2023/01/21 15:53:24;;;;;;;26.53;23.03;;;-0.50;99.90;;;;;;4902895;29;20512;-78
2023/01/21 15:56:25;;;;;;;25.90;23.07;;;-0.50;99.90;;;;;;4907615;29;21014;-79